sensor_id;sensor_type;location;lat;lon;timestamp;temperature;humidity
6333;DHT22;3199;49.102;8.856;2024-03-29T00:02:00;8.70;87.90
6333;DHT22;3199;49.102;8.856;2024-03-29T00:04:26;8.70;88.00
6333;DHT22;3199;49.102;8.856;2024-03-29T00:06:51;8.80;87.30
6333;DHT22;3199;49.102;8.856;2024-03-29T00:09:17;8.80;87.10
6333;DHT22;3199;49.102;8.856;2024-03-29T00:11:43;8.80;86.90
6333;DHT22;3199;49.102;8.856;2024-03-29T00:14:09;8.90;86.70
6333;DHT22;3199;49.102;8.856;2024-03-29T00:16:34;8.90;86.80
6333;DHT22;3199;49.102;8.856;2024-03-29T00:19:00;8.90;86.60
6333;DHT22;3199;49.102;8.856;2024-03-29T00:21:25;8.90;85.90
6333;DHT22;3199;49.102;8.856;2024-03-29T00:23:51;9.00;86.00
6333;DHT22;3199;49.102;8.856;2024-03-29T00:26:16;9.00;85.80
6333;DHT22;3199;49.102;8.856;2024-03-29T00:28:42;9.00;85.20
6333;DHT22;3199;49.102;8.856;2024-03-29T00:31:08;9.10;85.50
6333;DHT22;3199;49.102;8.856;2024-03-29T00:33:33;9.10;85.00
6333;DHT22;3199;49.102;8.856;2024-03-29T00:35:59;9.10;84.70
6333;DHT22;3199;49.102;8.856;2024-03-29T00:38:24;9.10;85.20
6333;DHT22;3199;49.102;8.856;2024-03-29T00:40:50;9.10;85.00
6333;DHT22;3199;49.102;8.856;2024-03-29T00:43:16;9.10;85.10
6333;DHT22;3199;49.102;8.856;2024-03-29T00:45:42;9.10;85.10
6333;DHT22;3199;49.102;8.856;2024-03-29T00:48:07;9.10;86.10
6333;DHT22;3199;49.102;8.856;2024-03-29T00:50:33;9.10;85.80
6333;DHT22;3199;49.102;8.856;2024-03-29T00:52:59;9.10;86.00
6333;DHT22;3199;49.102;8.856;2024-03-29T00:55:25;9.10;86.10
6333;DHT22;3199;49.102;8.856;2024-03-29T00:57:50;9.10;86.20
6333;DHT22;3199;49.102;8.856;2024-03-29T01:00:16;9.20;86.50
6333;DHT22;3199;49.102;8.856;2024-03-29T01:02:42;9.20;86.60
6333;DHT22;3199;49.102;8.856;2024-03-29T01:05:07;9.20;86.60
6333;DHT22;3199;49.102;8.856;2024-03-29T01:07:33;9.20;86.90
6333;DHT22;3199;49.102;8.856;2024-03-29T01:09:59;9.20;86.80
6333;DHT22;3199;49.102;8.856;2024-03-29T01:12:25;9.20;87.10
6333;DHT22;3199;49.102;8.856;2024-03-29T01:14:50;9.20;87.30
6333;DHT22;3199;49.102;8.856;2024-03-29T01:17:16;9.20;88.00
6333;DHT22;3199;49.102;8.856;2024-03-29T01:19:41;9.20;88.00
6333;DHT22;3199;49.102;8.856;2024-03-29T01:22:07;9.30;87.60
6333;DHT22;3199;49.102;8.856;2024-03-29T01:24:33;9.30;87.90
6333;DHT22;3199;49.102;8.856;2024-03-29T01:26:59;9.30;87.90
6333;DHT22;3199;49.102;8.856;2024-03-29T01:29:25;9.30;88.10
6333;DHT22;3199;49.102;8.856;2024-03-29T01:31:51;9.30;88.20
6333;DHT22;3199;49.102;8.856;2024-03-29T01:34:16;9.30;88.10
6333;DHT22;3199;49.102;8.856;2024-03-29T01:36:42;9.30;88.40
6333;DHT22;3199;49.102;8.856;2024-03-29T01:39:08;9.30;88.90
6333;DHT22;3199;49.102;8.856;2024-03-29T01:41:36;9.30;88.70
6333;DHT22;3199;49.102;8.856;2024-03-29T01:44:02;9.30;89.10
6333;DHT22;3199;49.102;8.856;2024-03-29T01:46:27;9.30;88.90
6333;DHT22;3199;49.102;8.856;2024-03-29T01:48:54;9.30;89.00
6333;DHT22;3199;49.102;8.856;2024-03-29T01:51:21;9.40;88.40
6333;DHT22;3199;49.102;8.856;2024-03-29T01:53:51;9.40;88.50
6333;DHT22;3199;49.102;8.856;2024-03-29T01:56:21;9.40;88.50
6333;DHT22;3199;49.102;8.856;2024-03-29T01:58:51;9.40;88.50
6333;DHT22;3199;49.102;8.856;2024-03-29T02:01:19;9.40;87.70
6333;DHT22;3199;49.102;8.856;2024-03-29T02:03:47;9.50;87.70
6333;DHT22;3199;49.102;8.856;2024-03-29T02:06:13;9.50;88.30
6333;DHT22;3199;49.102;8.856;2024-03-29T02:08:39;9.50;87.90
6333;DHT22;3199;49.102;8.856;2024-03-29T02:11:04;9.60;88.40
6333;DHT22;3199;49.102;8.856;2024-03-29T02:13:30;9.60;87.90
6333;DHT22;3199;49.102;8.856;2024-03-29T02:15:57;9.60;88.00
6333;DHT22;3199;49.102;8.856;2024-03-29T02:18:22;9.60;87.70
6333;DHT22;3199;49.102;8.856;2024-03-29T02:20:48;9.60;87.90
6333;DHT22;3199;49.102;8.856;2024-03-29T02:23:18;9.60;88.00
6333;DHT22;3199;49.102;8.856;2024-03-29T02:25:44;9.50;87.90
6333;DHT22;3199;49.102;8.856;2024-03-29T02:28:10;9.60;87.80
6333;DHT22;3199;49.102;8.856;2024-03-29T02:30:35;9.60;87.70
6333;DHT22;3199;49.102;8.856;2024-03-29T02:33:01;9.60;87.90
6333;DHT22;3199;49.102;8.856;2024-03-29T02:35:28;9.60;87.80
6333;DHT22;3199;49.102;8.856;2024-03-29T02:37:54;9.60;87.50
6333;DHT22;3199;49.102;8.856;2024-03-29T02:40:20;9.60;87.60
6333;DHT22;3199;49.102;8.856;2024-03-29T02:42:49;9.60;87.30
6333;DHT22;3199;49.102;8.856;2024-03-29T02:45:15;9.60;87.70
6333;DHT22;3199;49.102;8.856;2024-03-29T02:47:41;9.60;87.70
6333;DHT22;3199;49.102;8.856;2024-03-29T02:50:09;9.60;87.60
6333;DHT22;3199;49.102;8.856;2024-03-29T02:52:35;9.60;87.60
6333;DHT22;3199;49.102;8.856;2024-03-29T02:55:01;9.60;87.60
6333;DHT22;3199;49.102;8.856;2024-03-29T02:57:26;9.60;87.30
6333;DHT22;3199;49.102;8.856;2024-03-29T02:59:52;9.60;87.40
6333;DHT22;3199;49.102;8.856;2024-03-29T03:02:17;9.60;87.20
6333;DHT22;3199;49.102;8.856;2024-03-29T03:04:43;9.60;87.40
6333;DHT22;3199;49.102;8.856;2024-03-29T03:07:08;9.60;87.20
6333;DHT22;3199;49.102;8.856;2024-03-29T03:09:53;9.60;87.10
6333;DHT22;3199;49.102;8.856;2024-03-29T03:12:37;9.60;86.20
6333;DHT22;3199;49.102;8.856;2024-03-29T03:15:03;9.70;86.50
6333;DHT22;3199;49.102;8.856;2024-03-29T03:17:30;9.70;86.80
6333;DHT22;3199;49.102;8.856;2024-03-29T03:19:56;9.70;86.50
6333;DHT22;3199;49.102;8.856;2024-03-29T03:22:22;9.70;86.00
6333;DHT22;3199;49.102;8.856;2024-03-29T03:24:47;9.70;85.80
6333;DHT22;3199;49.102;8.856;2024-03-29T03:27:13;9.70;86.10
6333;DHT22;3199;49.102;8.856;2024-03-29T03:29:39;9.70;85.90
6333;DHT22;3199;49.102;8.856;2024-03-29T03:32:05;9.70;85.00
6333;DHT22;3199;49.102;8.856;2024-03-29T03:34:31;9.80;84.70
6333;DHT22;3199;49.102;8.856;2024-03-29T03:36:57;9.80;84.80
6333;DHT22;3199;49.102;8.856;2024-03-29T03:39:22;9.90;85.40
6333;DHT22;3199;49.102;8.856;2024-03-29T03:41:48;9.90;86.70
6333;DHT22;3199;49.102;8.856;2024-03-29T03:44:14;9.90;87.30
6333;DHT22;3199;49.102;8.856;2024-03-29T03:46:40;9.90;87.30
6333;DHT22;3199;49.102;8.856;2024-03-29T03:49:05;9.80;86.80
6333;DHT22;3199;49.102;8.856;2024-03-29T03:51:30;9.80;86.70
6333;DHT22;3199;49.102;8.856;2024-03-29T03:53:56;9.80;87.00
6333;DHT22;3199;49.102;8.856;2024-03-29T03:56:21;9.80;87.70
6333;DHT22;3199;49.102;8.856;2024-03-29T03:58:47;9.80;87.80
6333;DHT22;3199;49.102;8.856;2024-03-29T04:01:12;9.80;87.50
6333;DHT22;3199;49.102;8.856;2024-03-29T04:03:38;9.90;88.10
6333;DHT22;3199;49.102;8.856;2024-03-29T04:06:05;9.90;87.50
6333;DHT22;3199;49.102;8.856;2024-03-29T04:08:31;9.90;87.30
6333;DHT22;3199;49.102;8.856;2024-03-29T04:10:56;9.90;87.80
6333;DHT22;3199;49.102;8.856;2024-03-29T04:13:22;9.90;87.70
6333;DHT22;3199;49.102;8.856;2024-03-29T04:15:48;9.90;88.00
6333;DHT22;3199;49.102;8.856;2024-03-29T04:18:13;9.90;88.30
6333;DHT22;3199;49.102;8.856;2024-03-29T04:20:39;9.80;89.60
6333;DHT22;3199;49.102;8.856;2024-03-29T04:23:05;9.80;89.70
6333;DHT22;3199;49.102;8.856;2024-03-29T04:25:31;9.80;89.80
6333;DHT22;3199;49.102;8.856;2024-03-29T04:27:56;9.80;90.10
6333;DHT22;3199;49.102;8.856;2024-03-29T04:30:22;9.70;90.10
6333;DHT22;3199;49.102;8.856;2024-03-29T04:32:47;9.70;90.40
6333;DHT22;3199;49.102;8.856;2024-03-29T04:35:13;9.70;90.90
6333;DHT22;3199;49.102;8.856;2024-03-29T04:37:39;9.60;91.20
6333;DHT22;3199;49.102;8.856;2024-03-29T04:40:05;9.60;91.80
6333;DHT22;3199;49.102;8.856;2024-03-29T04:42:31;9.60;91.80
6333;DHT22;3199;49.102;8.856;2024-03-29T04:44:57;9.60;91.20
6333;DHT22;3199;49.102;8.856;2024-03-29T04:47:22;9.60;91.40
6333;DHT22;3199;49.102;8.856;2024-03-29T04:49:48;9.60;92.50
6333;DHT22;3199;49.102;8.856;2024-03-29T04:52:13;9.60;92.70
6333;DHT22;3199;49.102;8.856;2024-03-29T04:54:39;9.50;92.70
6333;DHT22;3199;49.102;8.856;2024-03-29T04:57:04;9.60;92.90
6333;DHT22;3199;49.102;8.856;2024-03-29T04:59:32;9.60;93.30
6333;DHT22;3199;49.102;8.856;2024-03-29T05:01:59;9.60;93.20
6333;DHT22;3199;49.102;8.856;2024-03-29T05:04:24;9.70;93.20
6333;DHT22;3199;49.102;8.856;2024-03-29T05:06:57;9.70;92.80
6333;DHT22;3199;49.102;8.856;2024-03-29T05:09:24;9.70;92.80
6333;DHT22;3199;49.102;8.856;2024-03-29T05:11:49;9.60;92.20
6333;DHT22;3199;49.102;8.856;2024-03-29T05:14:16;9.60;92.50
6333;DHT22;3199;49.102;8.856;2024-03-29T05:16:45;9.60;92.40
6333;DHT22;3199;49.102;8.856;2024-03-29T05:19:12;9.50;92.30
6333;DHT22;3199;49.102;8.856;2024-03-29T05:21:38;9.50;92.60
6333;DHT22;3199;49.102;8.856;2024-03-29T05:24:04;9.50;91.90
6333;DHT22;3199;49.102;8.856;2024-03-29T05:26:29;9.60;92.00
6333;DHT22;3199;49.102;8.856;2024-03-29T05:28:56;9.50;92.00
6333;DHT22;3199;49.102;8.856;2024-03-29T05:31:23;9.50;91.60
6333;DHT22;3199;49.102;8.856;2024-03-29T05:33:49;9.50;91.50
6333;DHT22;3199;49.102;8.856;2024-03-29T05:36:14;9.50;91.90
6333;DHT22;3199;49.102;8.856;2024-03-29T05:38:40;9.50;91.90
6333;DHT22;3199;49.102;8.856;2024-03-29T05:41:06;9.50;91.80
6333;DHT22;3199;49.102;8.856;2024-03-29T05:43:31;9.50;91.60
6333;DHT22;3199;49.102;8.856;2024-03-29T05:45:57;9.50;91.50
6333;DHT22;3199;49.102;8.856;2024-03-29T05:48:23;9.50;91.60
6333;DHT22;3199;49.102;8.856;2024-03-29T05:50:49;9.50;91.40
6333;DHT22;3199;49.102;8.856;2024-03-29T05:53:14;9.50;91.40
6333;DHT22;3199;49.102;8.856;2024-03-29T05:55:40;9.60;91.30
6333;DHT22;3199;49.102;8.856;2024-03-29T05:58:05;9.60;91.90
6333;DHT22;3199;49.102;8.856;2024-03-29T06:00:32;9.60;91.60
6333;DHT22;3199;49.102;8.856;2024-03-29T06:03:01;9.70;91.40
6333;DHT22;3199;49.102;8.856;2024-03-29T06:05:30;9.70;91.20
6333;DHT22;3199;49.102;8.856;2024-03-29T06:07:55;9.70;91.30
6333;DHT22;3199;49.102;8.856;2024-03-29T06:10:21;9.70;91.30
6333;DHT22;3199;49.102;8.856;2024-03-29T06:12:46;9.80;91.20
6333;DHT22;3199;49.102;8.856;2024-03-29T06:15:12;9.80;90.80
6333;DHT22;3199;49.102;8.856;2024-03-29T06:17:56;9.90;91.00
6333;DHT22;3199;49.102;8.856;2024-03-29T06:20:22;9.90;90.90
6333;DHT22;3199;49.102;8.856;2024-03-29T06:22:48;10.00;90.30
6333;DHT22;3199;49.102;8.856;2024-03-29T06:25:14;10.00;90.50
6333;DHT22;3199;49.102;8.856;2024-03-29T06:27:40;10.10;90.00
6333;DHT22;3199;49.102;8.856;2024-03-29T06:30:08;10.10;90.00
6333;DHT22;3199;49.102;8.856;2024-03-29T06:32:34;10.20;89.70
6333;DHT22;3199;49.102;8.856;2024-03-29T06:35:00;10.30;89.30
6333;DHT22;3199;49.102;8.856;2024-03-29T06:37:26;10.30;89.60
6333;DHT22;3199;49.102;8.856;2024-03-29T06:39:53;10.30;89.30
6333;DHT22;3199;49.102;8.856;2024-03-29T06:42:19;10.40;87.10
6333;DHT22;3199;49.102;8.856;2024-03-29T06:44:44;10.40;88.40
6333;DHT22;3199;49.102;8.856;2024-03-29T06:47:10;10.50;86.90
6333;DHT22;3199;49.102;8.856;2024-03-29T06:49:36;10.60;86.90
6333;DHT22;3199;49.102;8.856;2024-03-29T06:52:01;10.70;85.30
6333;DHT22;3199;49.102;8.856;2024-03-29T06:54:28;10.90;84.50
6333;DHT22;3199;49.102;8.856;2024-03-29T06:56:54;11.00;85.30
6333;DHT22;3199;49.102;8.856;2024-03-29T06:59:20;11.10;84.00
6333;DHT22;3199;49.102;8.856;2024-03-29T07:01:46;11.20;81.20
6333;DHT22;3199;49.102;8.856;2024-03-29T07:04:27;11.30;83.20
6333;DHT22;3199;49.102;8.856;2024-03-29T07:06:53;11.30;83.80
6333;DHT22;3199;49.102;8.856;2024-03-29T07:09:19;11.40;82.80
6333;DHT22;3199;49.102;8.856;2024-03-29T07:11:46;11.40;83.00
6333;DHT22;3199;49.102;8.856;2024-03-29T07:14:13;11.50;83.30
6333;DHT22;3199;49.102;8.856;2024-03-29T07:16:39;11.70;82.50
6333;DHT22;3199;49.102;8.856;2024-03-29T07:19:04;11.80;82.70
6333;DHT22;3199;49.102;8.856;2024-03-29T07:21:30;12.00;83.50
6333;DHT22;3199;49.102;8.856;2024-03-29T07:23:56;12.10;83.30
6333;DHT22;3199;49.102;8.856;2024-03-29T07:26:21;12.20;83.90
6333;DHT22;3199;49.102;8.856;2024-03-29T07:28:47;12.30;84.10
6333;DHT22;3199;49.102;8.856;2024-03-29T07:31:13;12.30;83.80
6333;DHT22;3199;49.102;8.856;2024-03-29T07:33:38;12.30;83.70
6333;DHT22;3199;49.102;8.856;2024-03-29T07:36:04;12.20;83.40
6333;DHT22;3199;49.102;8.856;2024-03-29T07:38:31;12.10;83.00
6333;DHT22;3199;49.102;8.856;2024-03-29T07:40:56;12.10;82.50
6333;DHT22;3199;49.102;8.856;2024-03-29T07:43:22;12.00;82.60
6333;DHT22;3199;49.102;8.856;2024-03-29T07:45:48;12.00;83.10
6333;DHT22;3199;49.102;8.856;2024-03-29T07:48:15;12.00;83.20
6333;DHT22;3199;49.102;8.856;2024-03-29T07:50:42;11.90;83.00
6333;DHT22;3199;49.102;8.856;2024-03-29T07:53:08;11.90;84.80
6333;DHT22;3199;49.102;8.856;2024-03-29T07:55:35;11.80;86.80
6333;DHT22;3199;49.102;8.856;2024-03-29T07:58:01;11.80;89.90
6333;DHT22;3199;49.102;8.856;2024-03-29T08:00:27;11.70;91.10
6333;DHT22;3199;49.102;8.856;2024-03-29T08:02:53;11.70;91.60
6333;DHT22;3199;49.102;8.856;2024-03-29T08:05:22;11.70;92.40
6333;DHT22;3199;49.102;8.856;2024-03-29T08:07:48;11.70;92.60
6333;DHT22;3199;49.102;8.856;2024-03-29T08:10:13;11.70;93.00
6333;DHT22;3199;49.102;8.856;2024-03-29T08:12:39;11.70;93.70
6333;DHT22;3199;49.102;8.856;2024-03-29T08:15:05;11.60;94.50
6333;DHT22;3199;49.102;8.856;2024-03-29T08:17:30;11.50;95.40
6333;DHT22;3199;49.102;8.856;2024-03-29T08:19:56;11.40;95.70
6333;DHT22;3199;49.102;8.856;2024-03-29T08:22:22;11.30;96.40
6333;DHT22;3199;49.102;8.856;2024-03-29T08:24:47;11.20;97.00
6333;DHT22;3199;49.102;8.856;2024-03-29T08:27:13;11.10;97.60
6333;DHT22;3199;49.102;8.856;2024-03-29T08:29:44;11.00;97.50
6333;DHT22;3199;49.102;8.856;2024-03-29T08:32:09;11.00;97.70
6333;DHT22;3199;49.102;8.856;2024-03-29T08:34:36;10.80;97.80
6333;DHT22;3199;49.102;8.856;2024-03-29T08:37:02;10.70;98.70
6333;DHT22;3199;49.102;8.856;2024-03-29T08:39:29;10.50;99.30
6333;DHT22;3199;49.102;8.856;2024-03-29T08:41:55;10.40;99.90
6333;DHT22;3199;49.102;8.856;2024-03-29T08:44:21;10.30;99.90
6333;DHT22;3199;49.102;8.856;2024-03-29T08:46:46;10.20;99.90
6333;DHT22;3199;49.102;8.856;2024-03-29T08:49:12;10.10;99.90
6333;DHT22;3199;49.102;8.856;2024-03-29T08:51:37;10.00;99.90
6333;DHT22;3199;49.102;8.856;2024-03-29T08:54:03;9.90;99.90
6333;DHT22;3199;49.102;8.856;2024-03-29T08:56:31;9.80;99.90
6333;DHT22;3199;49.102;8.856;2024-03-29T08:58:57;9.60;99.90
6333;DHT22;3199;49.102;8.856;2024-03-29T09:01:26;9.50;99.90
6333;DHT22;3199;49.102;8.856;2024-03-29T09:03:52;9.40;99.90
6333;DHT22;3199;49.102;8.856;2024-03-29T09:06:18;9.30;99.90
6333;DHT22;3199;49.102;8.856;2024-03-29T09:08:44;9.30;99.90
6333;DHT22;3199;49.102;8.856;2024-03-29T09:11:09;9.20;99.90
6333;DHT22;3199;49.102;8.856;2024-03-29T09:13:36;9.20;99.90
6333;DHT22;3199;49.102;8.856;2024-03-29T09:16:02;9.30;99.90
6333;DHT22;3199;49.102;8.856;2024-03-29T09:18:28;9.50;99.90
6333;DHT22;3199;49.102;8.856;2024-03-29T09:21:00;9.70;99.90
6333;DHT22;3199;49.102;8.856;2024-03-29T09:23:26;9.90;99.90
6333;DHT22;3199;49.102;8.856;2024-03-29T09:25:56;10.20;99.90
6333;DHT22;3199;49.102;8.856;2024-03-29T09:28:22;10.50;99.90
6333;DHT22;3199;49.102;8.856;2024-03-29T09:30:48;10.80;99.90
6333;DHT22;3199;49.102;8.856;2024-03-29T09:33:14;11.00;99.90
6333;DHT22;3199;49.102;8.856;2024-03-29T09:35:39;11.20;99.90
6333;DHT22;3199;49.102;8.856;2024-03-29T09:38:05;11.30;99.90
6333;DHT22;3199;49.102;8.856;2024-03-29T09:40:31;11.30;99.90
6333;DHT22;3199;49.102;8.856;2024-03-29T09:43:00;11.40;99.90
6333;DHT22;3199;49.102;8.856;2024-03-29T09:45:31;11.40;99.90
6333;DHT22;3199;49.102;8.856;2024-03-29T09:47:59;11.40;99.90
6333;DHT22;3199;49.102;8.856;2024-03-29T09:50:26;11.40;99.90
6333;DHT22;3199;49.102;8.856;2024-03-29T09:52:52;11.50;99.90
6333;DHT22;3199;49.102;8.856;2024-03-29T09:55:19;11.50;99.90
6333;DHT22;3199;49.102;8.856;2024-03-29T09:57:45;11.50;99.90
6333;DHT22;3199;49.102;8.856;2024-03-29T10:00:12;11.60;99.90
6333;DHT22;3199;49.102;8.856;2024-03-29T10:02:38;11.70;99.90
6333;DHT22;3199;49.102;8.856;2024-03-29T10:05:07;11.90;99.90
6333;DHT22;3199;49.102;8.856;2024-03-29T10:07:33;12.00;99.90
6333;DHT22;3199;49.102;8.856;2024-03-29T10:10:03;12.20;99.90
6333;DHT22;3199;49.102;8.856;2024-03-29T10:12:29;12.30;99.90
6333;DHT22;3199;49.102;8.856;2024-03-29T10:14:56;12.50;99.90
6333;DHT22;3199;49.102;8.856;2024-03-29T10:17:31;12.60;99.90
6333;DHT22;3199;49.102;8.856;2024-03-29T10:20:00;12.70;99.90
6333;DHT22;3199;49.102;8.856;2024-03-29T10:22:29;12.80;99.90
6333;DHT22;3199;49.102;8.856;2024-03-29T10:24:57;12.90;99.90
6333;DHT22;3199;49.102;8.856;2024-03-29T10:27:25;12.90;99.90
6333;DHT22;3199;49.102;8.856;2024-03-29T10:29:53;13.00;99.90
6333;DHT22;3199;49.102;8.856;2024-03-29T10:32:18;13.00;99.90
6333;DHT22;3199;49.102;8.856;2024-03-29T10:34:44;13.10;99.90
6333;DHT22;3199;49.102;8.856;2024-03-29T10:37:09;13.10;99.90
6333;DHT22;3199;49.102;8.856;2024-03-29T10:39:36;13.20;99.90
6333;DHT22;3199;49.102;8.856;2024-03-29T10:42:01;13.10;99.90
6333;DHT22;3199;49.102;8.856;2024-03-29T10:44:29;13.10;99.90
6333;DHT22;3199;49.102;8.856;2024-03-29T10:46:56;13.10;99.90
6333;DHT22;3199;49.102;8.856;2024-03-29T10:49:23;13.10;99.90
6333;DHT22;3199;49.102;8.856;2024-03-29T10:51:50;13.20;99.90
6333;DHT22;3199;49.102;8.856;2024-03-29T10:54:17;13.40;99.90
6333;DHT22;3199;49.102;8.856;2024-03-29T10:56:47;13.60;99.90
6333;DHT22;3199;49.102;8.856;2024-03-29T10:59:22;14.00;99.90
6333;DHT22;3199;49.102;8.856;2024-03-29T11:01:59;14.40;99.90
6333;DHT22;3199;49.102;8.856;2024-03-29T11:04:29;15.00;99.90
6333;DHT22;3199;49.102;8.856;2024-03-29T11:07:01;15.50;99.90
6333;DHT22;3199;49.102;8.856;2024-03-29T11:09:31;16.00;99.90
6333;DHT22;3199;49.102;8.856;2024-03-29T11:11:59;16.40;99.90
6333;DHT22;3199;49.102;8.856;2024-03-29T11:14:46;16.70;99.90
6333;DHT22;3199;49.102;8.856;2024-03-29T11:17:17;17.00;99.90
6333;DHT22;3199;49.102;8.856;2024-03-29T11:19:43;17.20;99.90
6333;DHT22;3199;49.102;8.856;2024-03-29T11:22:09;17.20;99.90
6333;DHT22;3199;49.102;8.856;2024-03-29T11:24:38;17.30;99.90
6333;DHT22;3199;49.102;8.856;2024-03-29T11:27:11;17.20;99.90
6333;DHT22;3199;49.102;8.856;2024-03-29T11:29:37;17.10;99.90
6333;DHT22;3199;49.102;8.856;2024-03-29T11:32:07;17.00;99.90
6333;DHT22;3199;49.102;8.856;2024-03-29T11:34:33;16.80;99.90
6333;DHT22;3199;49.102;8.856;2024-03-29T11:37:11;16.70;99.90
6333;DHT22;3199;49.102;8.856;2024-03-29T11:39:38;16.70;99.90
6333;DHT22;3199;49.102;8.856;2024-03-29T11:42:05;16.60;99.90
6333;DHT22;3199;49.102;8.856;2024-03-29T11:44:31;16.50;99.90
6333;DHT22;3199;49.102;8.856;2024-03-29T11:46:58;16.20;99.90
6333;DHT22;3199;49.102;8.856;2024-03-29T11:49:25;15.90;99.90
6333;DHT22;3199;49.102;8.856;2024-03-29T11:51:50;15.70;99.90
6333;DHT22;3199;49.102;8.856;2024-03-29T11:54:16;15.50;99.90
6333;DHT22;3199;49.102;8.856;2024-03-29T11:56:44;15.30;99.90
6333;DHT22;3199;49.102;8.856;2024-03-29T11:59:10;15.30;99.90
6333;DHT22;3199;49.102;8.856;2024-03-29T12:01:36;15.30;99.90
6333;DHT22;3199;49.102;8.856;2024-03-29T12:04:04;15.30;99.90
6333;DHT22;3199;49.102;8.856;2024-03-29T12:06:30;15.20;99.90
6333;DHT22;3199;49.102;8.856;2024-03-29T12:08:55;15.10;99.90
6333;DHT22;3199;49.102;8.856;2024-03-29T12:11:22;15.10;99.90
6333;DHT22;3199;49.102;8.856;2024-03-29T12:13:48;15.10;99.90
6333;DHT22;3199;49.102;8.856;2024-03-29T12:16:15;15.10;99.90
6333;DHT22;3199;49.102;8.856;2024-03-29T12:18:40;15.10;99.90
6333;DHT22;3199;49.102;8.856;2024-03-29T12:21:06;15.10;99.90
6333;DHT22;3199;49.102;8.856;2024-03-29T12:23:32;15.10;99.90
6333;DHT22;3199;49.102;8.856;2024-03-29T12:25:58;15.10;99.90
6333;DHT22;3199;49.102;8.856;2024-03-29T12:28:25;15.10;99.90
6333;DHT22;3199;49.102;8.856;2024-03-29T12:30:51;15.00;99.90
6333;DHT22;3199;49.102;8.856;2024-03-29T12:33:19;15.00;99.90
6333;DHT22;3199;49.102;8.856;2024-03-29T12:35:49;14.90;99.90
6333;DHT22;3199;49.102;8.856;2024-03-29T12:38:19;14.80;99.90
6333;DHT22;3199;49.102;8.856;2024-03-29T12:40:46;14.70;99.90
6333;DHT22;3199;49.102;8.856;2024-03-29T12:43:22;14.70;99.90
6333;DHT22;3199;49.102;8.856;2024-03-29T12:45:48;14.50;99.90
6333;DHT22;3199;49.102;8.856;2024-03-29T12:48:17;14.40;99.90
6333;DHT22;3199;49.102;8.856;2024-03-29T12:50:44;14.40;99.90
6333;DHT22;3199;49.102;8.856;2024-03-29T12:53:11;14.30;99.90
6333;DHT22;3199;49.102;8.856;2024-03-29T12:55:37;14.20;99.90
6333;DHT22;3199;49.102;8.856;2024-03-29T12:58:05;14.20;99.90
6333;DHT22;3199;49.102;8.856;2024-03-29T13:00:35;14.20;99.90
6333;DHT22;3199;49.102;8.856;2024-03-29T13:03:00;14.10;99.90
6333;DHT22;3199;49.102;8.856;2024-03-29T13:05:26;14.00;99.90
6333;DHT22;3199;49.102;8.856;2024-03-29T13:07:53;14.00;99.90
6333;DHT22;3199;49.102;8.856;2024-03-29T13:10:19;13.90;99.90
6333;DHT22;3199;49.102;8.856;2024-03-29T13:12:46;13.90;99.90
6333;DHT22;3199;49.102;8.856;2024-03-29T13:15:26;13.90;99.90
6333;DHT22;3199;49.102;8.856;2024-03-29T13:17:56;14.00;99.90
6333;DHT22;3199;49.102;8.856;2024-03-29T13:20:22;14.00;99.90
6333;DHT22;3199;49.102;8.856;2024-03-29T13:22:49;14.10;99.90
6333;DHT22;3199;49.102;8.856;2024-03-29T13:25:16;14.10;99.90
6333;DHT22;3199;49.102;8.856;2024-03-29T13:27:43;14.10;99.90
6333;DHT22;3199;49.102;8.856;2024-03-29T13:30:10;14.20;99.90
6333;DHT22;3199;49.102;8.856;2024-03-29T13:32:37;14.20;99.90
6333;DHT22;3199;49.102;8.856;2024-03-29T13:35:03;14.30;99.90
6333;DHT22;3199;49.102;8.856;2024-03-29T13:37:41;14.40;99.90
6333;DHT22;3199;49.102;8.856;2024-03-29T13:40:09;14.40;99.90
6333;DHT22;3199;49.102;8.856;2024-03-29T13:42:38;14.40;99.90
6333;DHT22;3199;49.102;8.856;2024-03-29T13:45:04;14.30;99.90
6333;DHT22;3199;49.102;8.856;2024-03-29T13:47:36;14.30;99.90
6333;DHT22;3199;49.102;8.856;2024-03-29T13:50:02;14.40;99.90
6333;DHT22;3199;49.102;8.856;2024-03-29T13:52:29;14.50;99.90
6333;DHT22;3199;49.102;8.856;2024-03-29T13:54:55;14.60;99.90
6333;DHT22;3199;49.102;8.856;2024-03-29T13:57:21;14.70;99.90
6333;DHT22;3199;49.102;8.856;2024-03-29T13:59:46;14.80;99.90
6333;DHT22;3199;49.102;8.856;2024-03-29T14:02:14;14.80;99.90
6333;DHT22;3199;49.102;8.856;2024-03-29T14:04:41;14.90;99.90
6333;DHT22;3199;49.102;8.856;2024-03-29T14:07:08;14.90;99.90
6333;DHT22;3199;49.102;8.856;2024-03-29T14:09:36;15.00;99.90
6333;DHT22;3199;49.102;8.856;2024-03-29T14:12:02;15.10;99.90
6333;DHT22;3199;49.102;8.856;2024-03-29T14:14:29;15.10;99.90
6333;DHT22;3199;49.102;8.856;2024-03-29T14:16:54;15.10;99.90
6333;DHT22;3199;49.102;8.856;2024-03-29T14:19:20;15.10;99.90
6333;DHT22;3199;49.102;8.856;2024-03-29T14:21:45;15.10;99.90
6333;DHT22;3199;49.102;8.856;2024-03-29T14:24:11;15.10;99.90
6333;DHT22;3199;49.102;8.856;2024-03-29T14:26:36;15.20;99.90
6333;DHT22;3199;49.102;8.856;2024-03-29T14:29:04;15.20;99.90
6333;DHT22;3199;49.102;8.856;2024-03-29T14:31:29;15.20;99.90
6333;DHT22;3199;49.102;8.856;2024-03-29T14:33:55;15.30;99.90
6333;DHT22;3199;49.102;8.856;2024-03-29T14:36:20;15.30;99.90
6333;DHT22;3199;49.102;8.856;2024-03-29T14:38:46;15.40;99.90
6333;DHT22;3199;49.102;8.856;2024-03-29T14:41:13;15.40;99.90
6333;DHT22;3199;49.102;8.856;2024-03-29T14:43:38;15.40;99.90
6333;DHT22;3199;49.102;8.856;2024-03-29T14:46:04;15.40;99.90
6333;DHT22;3199;49.102;8.856;2024-03-29T14:48:29;15.30;99.90
6333;DHT22;3199;49.102;8.856;2024-03-29T14:50:55;15.30;99.90
6333;DHT22;3199;49.102;8.856;2024-03-29T14:53:22;15.10;99.90
6333;DHT22;3199;49.102;8.856;2024-03-29T14:55:47;15.10;99.90
6333;DHT22;3199;49.102;8.856;2024-03-29T14:58:13;15.00;99.90
6333;DHT22;3199;49.102;8.856;2024-03-29T15:00:39;14.90;99.90
6333;DHT22;3199;49.102;8.856;2024-03-29T15:03:04;14.90;99.90
6333;DHT22;3199;49.102;8.856;2024-03-29T15:05:30;14.80;99.90
6333;DHT22;3199;49.102;8.856;2024-03-29T15:07:55;14.80;99.90
6333;DHT22;3199;49.102;8.856;2024-03-29T15:10:22;14.80;99.90
6333;DHT22;3199;49.102;8.856;2024-03-29T15:12:48;14.80;99.90
6333;DHT22;3199;49.102;8.856;2024-03-29T15:15:14;14.90;99.90
6333;DHT22;3199;49.102;8.856;2024-03-29T15:17:39;15.00;99.90
6333;DHT22;3199;49.102;8.856;2024-03-29T15:20:07;15.10;99.90
6333;DHT22;3199;49.102;8.856;2024-03-29T15:22:37;15.10;99.90
6333;DHT22;3199;49.102;8.856;2024-03-29T15:25:06;15.10;99.90
6333;DHT22;3199;49.102;8.856;2024-03-29T15:27:32;15.00;99.90
6333;DHT22;3199;49.102;8.856;2024-03-29T15:30:16;15.00;99.90
6333;DHT22;3199;49.102;8.856;2024-03-29T15:32:41;14.90;99.90
6333;DHT22;3199;49.102;8.856;2024-03-29T15:35:08;14.90;99.90
6333;DHT22;3199;49.102;8.856;2024-03-29T15:37:34;14.90;99.90
6333;DHT22;3199;49.102;8.856;2024-03-29T15:40:00;14.80;99.90
6333;DHT22;3199;49.102;8.856;2024-03-29T15:42:26;14.70;99.90
6333;DHT22;3199;49.102;8.856;2024-03-29T15:44:52;14.70;99.90
6333;DHT22;3199;49.102;8.856;2024-03-29T15:47:17;14.70;99.90
6333;DHT22;3199;49.102;8.856;2024-03-29T15:49:43;14.70;99.90
6333;DHT22;3199;49.102;8.856;2024-03-29T15:52:08;14.70;99.90
6333;DHT22;3199;49.102;8.856;2024-03-29T15:54:34;14.80;99.90
6333;DHT22;3199;49.102;8.856;2024-03-29T15:57:00;14.80;99.90
6333;DHT22;3199;49.102;8.856;2024-03-29T15:59:26;14.80;99.90
6333;DHT22;3199;49.102;8.856;2024-03-29T16:01:52;14.80;99.90
6333;DHT22;3199;49.102;8.856;2024-03-29T16:04:17;14.80;99.90
6333;DHT22;3199;49.102;8.856;2024-03-29T16:06:43;14.80;99.90